Time;durP1;ratioP1;P1;durP2;ratioP2;P2;SDS_P1;SDS_P2;PMS_P1;PMS_P2;Temp;Humidity;BMP_temperature;BMP_pressure;BME280_temperature;BME280_humidity;BME280_pressure;Samples;Min_cycle;Max_cycle;Signal;HPM_P1;HPM_P2
2024/03/25 00:00:14;;;;;;;3.53;2.40;;;;;;;5.05;100.00;152659.59;5052095;28;20434;-73
2024/03/25 00:02:41;;;;;;;5.03;2.47;;;;;;;5.04;100.00;152655.69;5063183;28;20449;-73
2024/03/25 00:05:09;;;;;;;4.47;2.20;;;;;;;5.05;100.00;152658.31;5030825;28;20493;-73
2024/03/25 00:07:35;;;;;;;4.33;2.33;;;;;;;5.04;100.00;152655.69;5048546;28;20463;-74
2024/03/25 00:10:01;;;;;;;3.83;2.40;;;;;;;5.03;100.00;152653.16;5058193;28;20847;-74
2024/03/25 00:12:29;;;;;;;2.60;2.20;;;;;;;5.03;100.00;152654.41;5052955;28;20447;-73
2024/03/25 00:14:55;;;;;;;2.57;2.10;;;;;;;5.03;100.00;152654.41;5049839;28;20197;-74
2024/03/25 00:17:21;;;;;;;2.60;1.90;;;;;;;5.02;100.00;152651.84;5060524;28;20447;-74
2024/03/25 00:19:50;;;;;;;7.67;2.50;;;;;;;5.04;100.00;152655.69;5044868;28;20215;-73
2024/03/25 00:22:17;;;;;;;2.83;2.40;;;;;;;5.05;100.00;152659.59;5045126;28;20449;-74
2024/03/25 00:24:43;;;;;;;2.90;2.17;;;;;;;5.04;100.00;152655.69;5039093;28;20996;-74
2024/03/25 00:27:09;;;;;;;3.30;2.40;;;;;;;5.03;100.00;152653.16;5062552;28;20458;-74
2024/03/25 00:29:36;;;;;;;2.53;1.97;;;;;;;5.03;100.00;152653.16;5062319;28;20218;-74
2024/03/25 00:32:03;;;;;;;5.33;2.40;;;;;;;5.02;100.00;152651.84;5057076;28;20544;-75
2024/03/25 00:34:29;;;;;;;3.67;2.47;;;;;;;4.98;100.00;152640.28;5042687;28;20526;-75
2024/03/25 00:36:55;;;;;;;3.00;2.13;;;;;;;4.98;100.00;152641.53;5059019;28;20454;-75
2024/03/25 00:39:21;;;;;;;4.13;2.40;;;;;;;5.00;100.00;152645.41;5045466;28;20236;-73
2024/03/25 00:41:48;;;;;;;3.60;2.43;;;;;;;4.98;100.00;152640.28;5023617;28;20466;-74
2024/03/25 00:44:14;;;;;;;3.73;2.73;;;;;;;4.96;100.00;152636.38;5057991;28;20441;-74
2024/03/25 00:46:42;;;;;;;2.80;2.00;;;;;;;4.95;100.00;152633.78;5052832;28;20451;-74
2024/03/25 00:49:08;;;;;;;5.97;2.60;;;;;;;4.92;100.00;152627.34;5050632;28;20685;-73
2024/03/25 00:51:35;;;;;;;4.30;2.60;;;;;;;4.94;100.00;152631.22;5058827;28;20548;-73
2024/03/25 00:54:01;;;;;;;4.33;3.07;;;;;;;4.92;100.00;152626.09;5063674;28;20534;-74
2024/03/25 00:56:27;;;;;;;3.73;2.67;;;;;;;4.93;100.00;152629.94;5061581;28;20524;-75
2024/03/25 00:58:53;;;;;;;3.33;2.47;;;;;;;4.94;100.00;152631.22;5058695;28;20213;-74
2024/03/25 01:01:19;;;;;;;4.10;2.40;;;;;;;4.93;100.00;152629.94;5041552;28;20480;-74
2024/03/25 01:03:46;;;;;;;4.37;2.50;;;;;;;4.93;100.00;152629.94;5053634;28;20240;-73
2024/03/25 01:06:14;;;;;;;4.27;2.80;;;;;;;4.93;100.00;152629.94;5035394;28;20859;-75
2024/03/25 01:08:40;;;;;;;3.47;2.60;;;;;;;4.91;100.00;152624.78;5055196;28;20509;-75
2024/03/25 01:11:07;;;;;;;3.90;2.30;;;;;;;4.91;100.00;152624.78;5065499;28;20430;-73
2024/03/25 01:13:32;;;;;;;5.40;2.77;;;;;;;4.92;100.00;152627.34;5062528;28;20325;-73
2024/03/25 01:15:59;;;;;;;5.00;3.10;;;;;;;4.93;100.00;152628.63;5044782;28;21009;-74
2024/03/25 01:18:24;;;;;;;4.00;3.10;;;;;;;4.93;100.00;152628.63;5046700;28;20202;-74
2024/03/25 01:20:52;;;;;;;4.03;2.80;;;;;;;4.91;100.00;152624.78;5038252;28;20454;-74
2024/03/25 01:23:18;;;;;;;2.70;2.40;;;;;;;4.90;100.00;152620.91;5059466;28;20680;-75
2024/03/25 01:25:44;;;;;;;4.03;2.87;;;;;;;4.90;100.00;152620.91;5058203;28;20497;-74
2024/03/25 01:28:10;;;;;;;4.03;2.77;;;;;;;4.92;100.00;152626.09;5057765;28;20261;-74
2024/03/25 01:30:38;;;;;;;3.70;2.40;;;;;;;4.92;100.00;152627.34;5064384;28;21156;-74
2024/03/25 01:33:05;;;;;;;3.53;2.53;;;;;;;4.90;100.00;152622.19;5035611;28;20211;-74
2024/03/25 01:35:31;;;;;;;4.13;2.60;;;;;;;4.90;100.00;152622.19;5060661;28;20434;-74
2024/03/25 01:37:58;;;;;;;4.53;3.40;;;;;;;4.90;100.00;152622.19;5052113;28;20437;-73
2024/03/25 01:40:25;;;;;;;4.70;3.37;;;;;;;4.86;100.00;152611.91;5046298;28;20435;-74
2024/03/25 01:42:56;;;;;;;4.10;2.70;;;;;;;4.87;100.00;152614.47;5061825;28;21013;-73
2024/03/25 01:45:23;;;;;;;4.57;3.43;;;;;;;4.90;100.00;152622.19;5067155;28;20454;-74
2024/03/25 01:47:49;;;;;;;4.10;2.67;;;;;;;4.90;100.00;152622.19;5032363;28;20446;-73
2024/03/25 01:50:17;;;;;;;5.00;3.13;;;;;;;4.92;100.00;152626.09;5049613;28;20482;-74
2024/03/25 01:52:42;;;;;;;4.53;2.70;;;;;;;4.89;100.00;152618.34;5049823;28;20447;-74
2024/03/25 01:55:16;;;;;;;6.20;3.10;;;;;;;4.86;100.00;152610.63;5062000;28;20515;-74
2024/03/25 01:57:42;;;;;;;4.80;2.50;;;;;;;4.87;100.00;152614.47;5035741;28;20223;-74
2024/03/25 02:00:09;;;;;;;3.87;2.60;;;;;;;4.87;100.00;152614.47;5066402;28;20797;-74
2024/03/25 02:02:46;;;;;;;3.93;2.97;;;;;;;4.86;100.00;152611.91;5059668;28;20561;-73
2024/03/25 02:05:13;;;;;;;5.53;2.50;;;;;;;4.83;100.00;152604.16;5035433;28;20459;-74
2024/03/25 02:07:41;;;;;;;4.47;3.03;;;;;;;4.83;100.00;152604.16;5031058;28;20531;-74
2024/03/25 02:10:10;;;;;;;4.47;2.80;;;;;;;4.83;100.00;152604.16;5050272;28;20505;-74
2024/03/25 02:12:36;;;;;;;4.40;2.70;;;;;;;4.84;100.00;152605.47;5046764;28;20874;-75
2024/03/25 02:15:04;;;;;;;4.70;2.97;;;;;;;4.82;100.00;152601.56;5067373;28;20438;-74
2024/03/25 02:17:29;;;;;;;4.80;3.33;;;;;;;4.81;100.00;152597.72;5060203;28;20201;-74
2024/03/25 02:19:56;;;;;;;5.60;2.70;;;;;;;4.81;100.00;152599.03;5049608;28;20918;-74
2024/03/25 02:22:22;;;;;;;3.40;2.67;;;;;;;4.82;100.00;152601.56;5051065;28;20333;-74
2024/03/25 02:24:50;;;;;;;3.97;3.13;;;;;;;4.82;100.00;152601.56;5060209;28;20482;-74
2024/03/25 02:27:17;;;;;;;5.17;3.10;;;;;;;4.82;100.00;152601.56;5047756;28;20229;-74
2024/03/25 02:29:45;;;;;;;5.87;2.97;;;;;;;4.82;100.00;152601.56;5057873;28;20964;-74
2024/03/25 02:32:10;;;;;;;5.80;2.57;;;;;;;4.82;100.00;152600.28;5063718;28;20465;-75
2024/03/25 02:34:37;;;;;;;4.40;2.90;;;;;;;4.83;100.00;152604.16;5024955;28;20454;-74
2024/03/25 02:37:03;;;;;;;4.90;3.03;;;;;;;4.85;100.00;152608.03;5064162;28;20284;-74
2024/03/25 02:39:30;;;;;;;3.10;2.40;;;;;;;4.82;100.00;152601.56;5048874;28;20460;-73
2024/03/25 02:41:56;;;;;;;5.87;2.90;;;;;;;4.80;100.00;152596.44;5030736;28;20423;-74
2024/03/25 02:44:24;;;;;;;4.73;2.73;;;;;;;4.80;100.00;152596.44;5030967;28;20443;-74
2024/03/25 02:46:50;;;;;;;3.80;3.17;;;;;;;4.81;100.00;152599.03;5054453;28;20214;-74
2024/03/25 02:49:16;;;;;;;6.63;3.40;;;;;;;4.83;100.00;152604.16;5051451;28;20517;-74
2024/03/25 02:51:42;;;;;;;5.97;3.43;;;;;;;4.82;100.00;152601.56;5050404;28;20232;-74
2024/03/25 02:54:08;;;;;;;4.77;2.67;;;;;;;4.80;100.00;152596.44;5051459;28;20458;-74
2024/03/25 02:56:34;;;;;;;3.80;2.30;;;;;;;4.79;100.00;152593.84;5067590;28;20225;-73
2024/03/25 02:59:01;;;;;;;5.30;3.60;;;;;;;4.79;100.00;152593.84;5058875;28;20511;-73
2024/03/25 03:01:28;;;;;;;4.27;3.43;;;;;;;4.82;100.00;152601.56;5048536;28;20802;-74
2024/03/25 03:03:54;;;;;;;6.00;4.13;;;;;;;4.83;100.00;152604.16;5046956;28;20848;-74
2024/03/25 03:06:20;;;;;;;5.03;2.87;;;;;;;4.84;100.00;152606.72;5040658;28;20495;-74
2024/03/25 03:08:46;;;;;;;5.30;3.23;;;;;;;4.84;100.00;152605.47;5048637;28;20485;-74
2024/03/25 03:11:12;;;;;;;3.50;2.80;;;;;;;4.85;100.00;152608.03;5048873;28;20205;-74
2024/03/25 03:13:38;;;;;;;3.90;3.20;;;;;;;4.85;100.00;152609.31;5032604;28;20509;-73
2024/03/25 03:16:04;;;;;;;4.87;3.00;;;;;;;4.83;100.00;152604.16;5030534;28;20209;-74
2024/03/25 03:18:32;;;;;;;4.50;3.47;;;;;;;4.83;100.00;152604.16;5039067;28;20451;-74
2024/03/25 03:20:58;;;;;;;3.67;2.93;;;;;;;4.85;100.00;152609.31;5048536;28;20521;-73
2024/03/25 03:23:24;;;;;;;3.77;3.30;;;;;;;4.83;100.00;152604.16;5030026;28;20491;-74
2024/03/25 03:25:50;;;;;;;3.77;2.80;;;;;;;4.81;100.00;152597.72;5042383;28;20267;-73
2024/03/25 03:28:17;;;;;;;3.80;3.17;;;;;;;4.79;100.00;152592.59;5038078;28;20512;-75
2024/03/25 03:30:42;;;;;;;5.50;3.30;;;;;;;4.77;100.00;152588.69;5058775;28;20209;-73
2024/03/25 03:33:09;;;;;;;5.40;3.30;;;;;;;4.77;100.00;152587.41;5038141;28;20971;-75
2024/03/25 03:35:36;;;;;;;4.43;3.33;;;;;;;4.74;100.00;152580.97;5056854;28;20751;-75
2024/03/25 03:38:03;;;;;;;4.27;3.10;;;;;;;4.71;100.00;152571.97;5059432;28;20815;-74
2024/03/25 03:40:29;;;;;;;3.70;3.10;;;;;;;4.68;100.00;152565.53;5045974;28;20531;-74
2024/03/25 03:42:55;;;;;;;4.63;3.37;;;;;;;4.64;100.00;152555.19;5067440;28;20438;-74
2024/03/25 03:45:23;;;;;;;4.70;3.67;;;;;;;4.62;100.00;152550.06;5050887;28;20454;-75
2024/03/25 03:47:50;;;;;;;3.70;3.10;;;;;;;4.55;100.00;152532.03;5029403;28;20532;-75
2024/03/25 03:50:15;;;;;;;4.90;3.17;;;;;;;4.52;100.00;152524.28;5047718;28;20477;-75
2024/03/25 03:52:43;;;;;;;4.33;3.30;;;;;;;4.52;100.00;152524.28;5031089;28;20774;-74
2024/03/25 03:55:10;;;;;;;6.33;3.10;;;;;;;4.47;100.00;152511.41;5045961;28;20234;-75
2024/03/25 03:57:36;;;;;;;4.20;3.60;;;;;;;4.45;100.00;152504.97;5051152;28;20429;-74
2024/03/25 04:00:02;;;;;;;6.40;3.30;;;;;;;4.44;100.00;152503.69;5051967;28;20450;-74
2024/03/25 04:02:39;;;;;;;5.60;3.90;;;;;;;4.45;100.00;152504.97;5047047;28;20988;-74
2024/03/25 04:05:05;;;;;;;6.43;3.80;;;;;;;4.45;100.00;152506.22;5029154;28;20461;-74
2024/03/25 04:07:33;;;;;;;4.60;3.60;;;;;;;4.45;100.00;152506.22;5047186;28;20436;-74
2024/03/25 04:09:59;;;;;;;5.20;3.40;;;;;;;4.43;100.00;152501.09;5056109;28;20487;-73
2024/03/25 04:12:26;;;;;;;4.37;3.47;;;;;;;4.42;100.00;152498.50;5045607;28;20990;-73
2024/03/25 04:14:54;;;;;;;6.13;4.70;;;;;;;4.43;100.00;152501.09;5048747;28;21049;-73
2024/03/25 04:17:22;;;;;;;5.73;4.00;;;;;;;4.44;100.00;152503.69;5049662;28;20450;-73
2024/03/25 04:19:47;;;;;;;5.20;3.90;;;;;;;4.44;100.00;152503.69;5048181;28;20520;-74
2024/03/25 04:22:14;;;;;;;5.37;3.87;;;;;;;4.44;100.00;152502.38;5051050;28;20900;-74
2024/03/25 04:24:39;;;;;;;4.90;3.70;;;;;;;4.44;100.00;152502.38;5044920;28;20236;-75
2024/03/25 04:27:07;;;;;;;4.60;3.50;;;;;;;4.43;100.00;152501.09;5062079;28;20817;-75
2024/03/25 04:29:34;;;;;;;6.10;3.90;;;;;;;4.43;100.00;152501.09;5050608;28;20595;-75
2024/03/25 04:31:59;;;;;;;4.73;3.33;;;;;;;4.44;100.00;152503.69;5047205;28;20786;-75
2024/03/25 04:34:26;;;;;;;5.43;4.23;;;;;;;4.43;100.00;152499.78;5059423;28;20524;-75
2024/03/25 04:36:53;;;;;;;6.57;4.10;;;;;;;4.43;100.00;152501.09;5034805;28;20598;-74
